Pembrey Sands, United Kingdom
Current Conditions -  °F | °C
As of 12:50 PM on Friday 19 Dec 2014 (Local Time) from EGOP Reporting Station
Few Clouds Few Clouds  
Wind Chill: 41°   Ceiling: Unl
Heat Index: 48°   Visibility: 6mi
Dew Point: 39°   Wind: 22mph
Humidity: 71%   Direction: 280°W
Pressure: 30.09"   Gusts: NA
Location:  51.72°N, 4.37°W
Report Text: EGOP 191250Z AUTO 28019KT 9999 // FEW050/// 09/04 Q1019
Loading
Personal Weather Stations






























Interactive Weather Map New forecast layout! Learn more

10-Day Weather Forecast

Advertisements
Track Severe Weather on mobile